Time;durP1;ratioP1;P1;durP2;ratioP2;P2;SDS_P1;SDS_P2;PMS_P1;PMS_P2;Temp;Humidity;BMP_temperature;BMP_pressure;BME280_temperature;BME280_humidity;BME280_pressure;Samples;Min_cycle;Max_cycle;Signal;HPM_P1;HPM_P2
2023/01/19 06:55:15;;;;;;;7.07;4.93;;;;;;;;;;10590086;27;20758;-84
2023/01/19 07:00:17;;;;;;;3.17;2.10;;;;;;;;;;10589066;28;20028;-84
2023/01/19 07:05:18;;;;;;;3.90;2.97;;;;;;;;;;10588616;28;20038;-84
2023/01/19 07:10:19;;;;;;;4.40;3.15;;;;;;;;;;10588878;28;20027;-84
2023/01/19 07:15:21;;;;;;;2.90;2.20;;;;;;;;;;10590343;28;20028;-84
2023/01/19 07:20:22;;;;;;;3.65;3.00;;;;;;;;;;10590929;28;20549;-85
2023/01/19 07:25:23;;;;;;;6.32;5.38;;;;;;;;;;10591106;28;20047;-85
2023/01/19 07:30:25;;;;;;;6.40;4.78;;;;;;;;;;10592349;28;20535;-85
2023/01/19 07:35:26;;;;;;;3.05;2.35;;;;;;;;;;10610898;28;20028;-84
2023/01/19 07:40:27;;;;;;;3.72;2.88;;;;;;;;;;10597115;28;20122;-85
2023/01/19 07:45:28;;;;;;;25.25;12.07;;;;;;;;;;10594353;28;20020;-85
2023/01/19 07:50:29;;;;;;;5.38;3.28;;;;;;;;;;10594452;28;20093;-85
2023/01/19 07:55:30;;;;;;;6.20;3.63;;;;;;;;;;10611202;28;20087;-82
2023/01/19 08:00:31;;;;;;;4.05;2.60;;;;;;;;;;10615170;28;20077;-84
2023/01/19 08:05:35;;;;;;;4.03;2.40;;;;;;;;;;10567552;28;20044;-81
2023/01/19 08:10:43;;;;;;;3.63;2.80;;;;;;;;;;10540878;28;20028;-81
2023/01/19 08:15:44;;;;;;;3.78;3.30;;;;;;;;;;10560477;28;20024;-83
2023/01/19 08:20:46;;;;;;;6.03;4.63;;;;;;;;;;10563672;28;20083;-83
2023/01/19 08:25:47;;;;;;;5.72;4.25;;;;;;;;;;10569873;28;20024;-83
2023/01/19 08:30:53;;;;;;;6.68;5.20;;;;;;;;;;10563067;28;20030;-83
2023/01/19 08:35:54;;;;;;;5.93;3.75;;;;;;;;;;10564107;28;20028;-83
2023/01/19 08:40:55;;;;;;;5.88;3.67;;;;;;;;;;10564043;28;20493;-83
2023/01/19 08:45:56;;;;;;;4.45;3.47;;;;;;;;;;10561243;28;20123;-84
2023/01/19 08:50:58;;;;;;;6.28;4.78;;;;;;;;;;10560793;28;20023;-83
2023/01/19 08:56:00;;;;;;;5.25;3.65;;;;;;;;;;10569200;28;20032;-83
2023/01/19 09:01:01;;;;;;;8.20;5.57;;;;;;;;;;10559207;28;20417;-83
2023/01/19 09:06:04;;;;;;;11.75;7.40;;;;;;;;;;10559748;28;20054;-83
2023/01/19 09:11:20;;;;;;;9.93;6.90;;;;;;;;;;10563031;28;20088;-83
2023/01/19 09:16:21;;;;;;;9.35;7.28;;;;;;;;;;10565535;28;20024;-83
2023/01/19 09:21:22;;;;;;;9.63;7.07;;;;;;;;;;10560884;28;20031;-83
2023/01/19 09:26:23;;;;;;;11.48;7.72;;;;;;;;;;10552261;28;20127;-84
2023/01/19 09:31:25;;;;;;;10.25;7.55;;;;;;;;;;10553734;28;20038;-83
2023/01/19 09:36:26;;;;;;;10.07;7.78;;;;;;;;;;10554845;28;20032;-84
2023/01/19 09:41:27;;;;;;;9.02;6.35;;;;;;;;;;10555391;28;20024;-84
2023/01/19 09:46:40;;;;;;;7.45;6.43;;;;;;;;;;10563687;28;20552;-83
2023/01/19 09:57:15;;;;;;;6.38;4.60;;;;;;;;;;10569064;28;20036;-82
2023/01/19 10:02:22;;;;;;;;;;;;;;;;;;10562205;28;20040;-83
2023/01/19 10:07:35;;;;;;;8.93;6.57;;;;;;;;;;10561107;28;19929;-84
2023/01/19 10:12:44;;;;;;;5.53;4.07;;;;;;;;;;10565009;28;20024;-83
2023/01/19 10:18:03;;;;;;;6.80;5.30;;;;;;;;;;10558391;28;20036;-82
2023/01/19 10:23:15;;;;;;;8.05;5.68;;;;;;;;;;10555508;28;20422;-83
2023/01/19 10:28:16;;;;;;;;;;;;;;;;;;10563390;28;20032;-83
2023/01/19 10:33:17;;;;;;;7.00;5.13;;;;;;;;;;10560340;28;19908;-83
2023/01/19 10:38:21;;;;;;;12.38;8.93;;;;;;;;;;10555041;28;20024;-83
2023/01/19 10:43:38;;;;;;;5.85;3.90;;;;;;;;;;10554630;28;20024;-83
2023/01/19 10:48:40;;;;;;;8.77;6.35;;;;;;;;;;10557951;28;20038;-84
2023/01/19 10:54:14;;;;;;;7.00;5.28;;;;;;;;;;10553605;28;20040;-82
2023/01/19 10:59:34;;;;;;;5.75;4.90;;;;;;;;;;10498706;28;20072;-82
2023/01/19 11:04:35;;;;;;;5.43;4.03;;;;;;;;;;10553306;28;20105;-82
2023/01/19 11:09:36;;;;;;;6.55;4.85;;;;;;;;;;10553265;28;20077;-82
2023/01/19 11:14:37;;;;;;;6.13;5.38;;;;;;;;;;10555570;28;20066;-82
2023/01/19 11:19:39;;;;;;;8.05;5.68;;;;;;;;;;10560067;28;20044;-81
2023/01/19 11:24:40;;;;;;;;;;;;;;;;;;10556513;28;20038;-80
2023/01/19 11:29:46;;;;;;;5.15;3.42;;;;;;;;;;10556930;28;20349;-82
2023/01/19 11:34:47;;;;;;;9.85;6.72;;;;;;;;;;10557523;28;20024;-82
2023/01/19 11:39:49;;;;;;;5.72;4.28;;;;;;;;;;10563289;28;20047;-82
2023/01/19 11:44:54;;;;;;;6.28;4.75;;;;;;;;;;10567301;28;20045;-83
2023/01/19 11:50:05;;;;;;;6.10;4.82;;;;;;;;;;10562673;28;20058;-83
2023/01/19 11:55:13;;;;;;;7.13;5.50;;;;;;;;;;10569067;28;20055;-83
2023/01/19 12:00:35;;;;;;;9.80;6.25;;;;;;;;;;10562677;28;20031;-83
2023/01/19 12:05:39;;;;;;;8.20;4.80;;;;;;;;;;10560730;28;20056;-83
2023/01/19 12:10:42;;;;;;;6.68;4.57;;;;;;;;;;10559369;28;20032;-83
2023/01/19 12:15:44;;;;;;;12.43;8.57;;;;;;;;;;10561024;28;20031;-82
2023/01/19 12:20:54;;;;;;;7.90;5.13;;;;;;;;;;10557779;28;20493;-83
2023/01/19 12:26:01;;;;;;;7.85;5.05;;;;;;;;;;10562025;28;20081;-82
2023/01/19 12:31:03;;;;;;;7.63;5.82;;;;;;;;;;10569167;28;20036;-83
2023/01/19 12:36:16;;;;;;;11.13;7.30;;;;;;;;;;10556809;28;20115;-82
2023/01/19 12:41:31;;;;;;;11.05;7.43;;;;;;;;;;10559749;28;20050;-83
2023/01/19 12:46:32;;;;;;;12.60;7.93;;;;;;;;;;10562038;28;20046;-82
2023/01/19 12:51:33;;;;;;;9.48;5.95;;;;;;;;;;10568803;28;20060;-83
2023/01/19 12:56:34;;;;;;;;;;;;;;;;;;10567296;28;20039;-83
2023/01/19 13:01:35;;;;;;;13.18;8.55;;;;;;;;;;10558562;28;19915;-83
2023/01/19 13:06:48;;;;;;;10.93;7.53;;;;;;;;;;10565905;28;20054;-82
2023/01/19 13:12:09;;;;;;;11.48;8.63;;;;;;;;;;10558813;28;20126;-83
2023/01/19 13:17:21;;;;;;;11.85;8.27;;;;;;;;;;10558915;28;20024;-84
2023/01/19 13:22:41;;;;;;;17.23;11.02;;;;;;;;;;10557684;28;20043;-84
2023/01/19 13:27:42;;;;;;;14.48;10.57;;;;;;;;;;10555341;28;20028;-83
2023/01/19 13:32:43;;;;;;;10.15;6.95;;;;;;;;;;10569839;28;20042;-84
2023/01/19 13:37:44;;;;;;;11.95;8.10;;;;;;;;;;10552186;28;20038;-84
2023/01/19 13:42:48;;;;;;;18.77;13.77;;;;;;;;;;10553762;28;20141;-82
2023/01/19 13:47:51;;;;;;;8.65;6.07;;;;;;;;;;10558196;28;20493;-83
2023/01/19 13:52:54;;;;;;;17.40;12.63;;;;;;;;;;10555127;28;20115;-83
2023/01/19 13:57:55;;;;;;;18.58;12.63;;;;;;;;;;10558026;28;20038;-84
2023/01/19 14:02:57;;;;;;;22.88;14.68;;;;;;;;;;10561374;28;20028;-83
2023/01/19 14:08:03;;;;;;;13.35;9.23;;;;;;;;;;10580458;28;20074;-82
2023/01/19 14:13:17;;;;;;;12.45;9.13;;;;;;;;;;10579008;28;20043;-83
2023/01/19 14:18:18;;;;;;;18.58;12.25;;;;;;;;;;10580558;28;20024;-82
2023/01/19 14:23:38;;;;;;;14.52;10.40;;;;;;;;;;10575880;28;20016;-82
2023/01/19 14:28:43;;;;;;;11.65;8.60;;;;;;;;;;10575138;28;20032;-82
2023/01/19 14:33:45;;;;;;;12.90;8.77;;;;;;;;;;10574565;28;20053;-82
2023/01/19 14:38:48;;;;;;;23.15;13.90;;;;;;;;;;10571505;28;20052;-82
2023/01/19 14:43:49;;;;;;;10.30;6.88;;;;;;;;;;10572463;28;20103;-83
2023/01/19 14:48:50;;;;;;;;;;;;;;;;;;10576643;28;20046;-80
2023/01/19 14:53:53;;;;;;;9.05;7.07;;;;;;;;;;10574514;28;20029;-81
2023/01/19 14:58:56;;;;;;;13.38;8.90;;;;;;;;;;10570933;28;20493;-80
2023/01/19 15:03:57;;;;;;;11.75;7.88;;;;;;;;;;10569932;28;20108;-81
2023/01/19 15:08:58;;;;;;;;;;;;;;;;;;10573107;28;20043;-82
2023/01/19 15:13:59;;;;;;;10.68;6.43;;;;;;;;;;10570065;28;19976;-82
2023/01/19 15:19:00;;;;;;;9.45;6.22;;;;;;;;;;10575094;28;20050;-82
2023/01/19 15:24:01;;;;;;;12.23;8.02;;;;;;;;;;10585454;28;20013;-83
2023/01/19 15:29:03;;;;;;;8.55;5.70;;;;;;;;;;10589177;28;20038;-81
2023/01/19 15:34:04;;;;;;;10.52;7.07;;;;;;;;;;10581895;28;20036;-82
2023/01/19 15:39:05;;;;;;;8.60;5.57;;;;;;;;;;10577789;28;20080;-81
2023/01/19 15:44:08;;;;;;;8.88;5.82;;;;;;;;;;10569052;28;20055;-81
2023/01/19 15:49:09;;;;;;;7.65;4.72;;;;;;;;;;10571320;28;20032;-81
2023/01/19 15:54:14;;;;;;;7.47;5.13;;;;;;;;;;10577179;28;20055;-83
2023/01/19 15:59:15;;;;;;;9.50;5.93;;;;;;;;;;10577988;28;20031;-82
2023/01/19 16:04:16;;;;;;;9.10;6.38;;;;;;;;;;10577521;28;20023;-82
2023/01/19 16:09:18;;;;;;;11.45;7.15;;;;;;;;;;10572291;28;20087;-82
2023/01/19 16:14:19;;;;;;;11.13;7.03;;;;;;;;;;10571841;28;20020;-82
2023/01/19 16:19:22;;;;;;;8.80;5.63;;;;;;;;;;10576393;28;20050;-82
2023/01/19 16:24:23;;;;;;;8.77;6.72;;;;;;;;;;10578549;28;20038;-81
2023/01/19 16:29:24;;;;;;;7.45;5.07;;;;;;;;;;10585380;28;20046;-81
2023/01/19 16:34:25;;;;;;;7.50;5.63;;;;;;;;;;10569728;28;20043;-81
2023/01/19 16:39:26;;;;;;;10.73;7.38;;;;;;;;;;10566556;28;20024;-82
2023/01/19 16:44:27;;;;;;;7.90;5.90;;;;;;;;;;10574004;28;20028;-82
2023/01/19 16:49:29;;;;;;;9.13;5.68;;;;;;;;;;10571452;28;20046;-80
2023/01/19 16:54:31;;;;;;;8.50;6.25;;;;;;;;;;10579349;28;20218;-81
2023/01/19 16:59:32;;;;;;;15.23;11.50;;;;;;;;;;10570809;28;20020;-81
2023/01/19 17:04:33;;;;;;;7.55;5.50;;;;;;;;;;10578818;28;20047;-83
2023/01/19 17:09:34;;;;;;;8.63;6.05;;;;;;;;;;10578509;28;20035;-82
2023/01/19 17:14:36;;;;;;;8.15;5.53;;;;;;;;;;10583481;28;20023;-82
2023/01/19 17:19:37;;;;;;;8.27;5.30;;;;;;;;;;10566426;28;20032;-80
2023/01/19 17:42:10;;;;;;;13.48;8.88;;;;;;;;;;10571232;28;20024;-84
2023/01/19 18:37:51;;;;;;;18.13;13.05;;;;;;;;;;10545798;28;20028;-85
2023/01/19 19:17:19;;;;;;;10.70;7.80;;;;;;;;;;10591889;28;20019;-85
2023/01/19 19:22:20;;;;;;;8.05;5.95;;;;;;;;;;10578243;28;20024;-84
2023/01/19 19:33:03;;;;;;;6.38;4.75;;;;;;;;;;10594492;28;20451;-85
2023/01/19 19:38:04;;;;;;;;;;;;;;;;;;10578412;28;20023;-85
2023/01/19 19:43:05;;;;;;;11.85;8.32;;;;;;;;;;10576128;28;19919;-84
2023/01/19 19:48:06;;;;;;;9.98;7.03;;;;;;;;;;10583893;28;20485;-84
2023/01/19 19:53:24;;;;;;;11.05;8.13;;;;;;;;;;10575108;28;20074;-84
2023/01/19 19:58:26;;;;;;;10.90;7.95;;;;;;;;;;10576476;28;20031;-86
